QFA0818 YMML-YSSY
Flight info
| Callsign | QFA0818 |
|---|---|
| Flight time | 1h 3m |
| Altitude | 35000 |
| Route | DOSEL2/34 DOSEL Y59 RIVET |
| Aircraft | B737/M-SDE2E3FGHIRWXY/LB1 |
Departure
| Time | 2026-04-26 04:15 |
|---|---|
| Airport | Melbourne Airport (YMML) |
Arrival
| Time | 2026-04-26 05:18 |
|---|---|
| Airport | Sydney Kingsford Smith International Airport (YSSY) |
| Time | Latitude | Longitude | Altitude | Speed | Heading |
|---|---|---|---|---|---|
| 2026-04-26 03:57 | -37.67070 | 144.84624 | 441 ft | 0 kts | 172° |
| 2026-04-26 04:04 | -37.67054 | 144.84621 | 441 ft | 2 kts | 169° |
| 2026-04-26 04:05 | -37.67038 | 144.84618 | 441 ft | 2 kts | 171° |
| 2026-04-26 04:05 | -37.67022 | 144.84615 | 441 ft | 2 kts | 170° |
| 2026-04-26 04:05 | -37.67011 | 144.84613 | 441 ft | 1 kts | 215° |
| 2026-04-26 04:05 | -37.67007 | 144.84622 | 441 ft | 1 kts | 267° |
| 2026-04-26 04:06 | -37.67007 | 144.84625 | 441 ft | 0 kts | 264° |
| 2026-04-26 04:09 | -37.67011 | 144.84582 | 441 ft | 13 kts | 263° |
| 2026-04-26 04:09 | -37.67044 | 144.84415 | 441 ft | 19 kts | 253° |
| 2026-04-26 04:09 | -37.67098 | 144.84261 | 441 ft | 15 kts | 202° |
| 2026-04-26 04:10 | -37.67200 | 144.84268 | 441 ft | 12 kts | 171° |
| 2026-04-26 04:10 | -37.67287 | 144.84285 | 441 ft | 11 kts | 171° |
| 2026-04-26 04:10 | -37.67372 | 144.84302 | 441 ft | 13 kts | 171° |
| 2026-04-26 04:10 | -37.67483 | 144.84323 | 441 ft | 17 kts | 171° |
| 2026-04-26 04:11 | -37.67626 | 144.84349 | 441 ft | 21 kts | 172° |
| 2026-04-26 04:11 | -37.67802 | 144.84381 | 441 ft | 25 kts | 171° |
| 2026-04-26 04:11 | -37.67999 | 144.84418 | 441 ft | 26 kts | 171° |
| 2026-04-26 04:11 | -37.68197 | 144.84456 | 441 ft | 27 kts | 171° |
| 2026-04-26 04:12 | -37.68349 | 144.84460 | 441 ft | 16 kts | 202° |
| 2026-04-26 04:12 | -37.68442 | 144.84393 | 441 ft | 12 kts | 213° |
| 2026-04-26 04:12 | -37.68521 | 144.84322 | 441 ft | 13 kts | 228° |
| 2026-04-26 04:12 | -37.68550 | 144.84250 | 441 ft | 0 kts | 259° |
| 2026-04-26 04:13 | -37.68551 | 144.84245 | 441 ft | 2 kts | 259° |
| 2026-04-26 04:13 | -37.68556 | 144.84177 | 441 ft | 12 kts | 272° |
| 2026-04-26 04:13 | -37.68474 | 144.84084 | 441 ft | 1 kts | 352° |
| 2026-04-26 04:13 | -37.68475 | 144.84084 | 441 ft | 0 kts | 352° |
| 2026-04-26 04:14 | -37.68428 | 144.84074 | 441 ft | 16 kts | 352° |
| 2026-04-26 04:14 | -37.68057 | 144.84007 | 441 ft | 96 kts | 351° |
| 2026-04-26 04:14 | -37.67010 | 144.83809 | 465 ft | 183 kts | 351° |
| 2026-04-26 04:15 | -37.65541 | 144.83472 | 1212 ft | 215 kts | 348° |
| 2026-04-26 04:15 | -37.63880 | 144.83118 | 2066 ft | 245 kts | 352° |
| 2026-04-26 04:15 | -37.62048 | 144.82808 | 3327 ft | 254 kts | 352° |
| 2026-04-26 04:15 | -37.60148 | 144.82494 | 4503 ft | 265 kts | 356° |
| 2026-04-26 04:16 | -37.58155 | 144.82985 | 5881 ft | 271 kts | 21° |
| 2026-04-26 04:16 | -37.56309 | 144.84009 | 7210 ft | 277 kts | 25° |
| 2026-04-26 04:16 | -37.54446 | 144.85130 | 8524 ft | 282 kts | 25° |
| 2026-04-26 04:16 | -37.52513 | 144.86304 | 9798 ft | 287 kts | 25° |
| 2026-04-26 04:17 | -37.50484 | 144.87535 | 10393 ft | 318 kts | 25° |
| 2026-04-26 04:17 | -37.48237 | 144.88898 | 11145 ft | 339 kts | 25° |
| 2026-04-26 04:17 | -37.45939 | 144.90289 | 12336 ft | 345 kts | 25° |
| 2026-04-26 04:17 | -37.43629 | 144.91820 | 13426 ft | 352 kts | 36° |
| 2026-04-26 04:18 | -37.41890 | 144.94298 | 14547 ft | 356 kts | 59° |
| 2026-04-26 04:18 | -37.40545 | 144.97160 | 15544 ft | 362 kts | 56° |
| 2026-04-26 04:18 | -37.39014 | 144.99918 | 16540 ft | 367 kts | 54° |
| 2026-04-26 04:18 | -37.37421 | 145.02737 | 17511 ft | 373 kts | 54° |
| 2026-04-26 04:19 | -37.35803 | 145.05598 | 18443 ft | 378 kts | 54° |
| 2026-04-26 04:19 | -37.34173 | 145.08478 | 19335 ft | 383 kts | 54° |
| 2026-04-26 04:19 | -37.32527 | 145.11385 | 20198 ft | 388 kts | 54° |
| 2026-04-26 04:19 | -37.30863 | 145.14320 | 21033 ft | 392 kts | 54° |
| 2026-04-26 04:20 | -37.29155 | 145.17329 | 21847 ft | 397 kts | 54° |
| 2026-04-26 04:20 | -37.27454 | 145.20325 | 22606 ft | 402 kts | 54° |
| 2026-04-26 04:20 | -37.25705 | 145.23402 | 23359 ft | 407 kts | 54° |
| 2026-04-26 04:20 | -37.23939 | 145.26506 | 24087 ft | 411 kts | 54° |
| 2026-04-26 04:21 | -37.22149 | 145.29651 | 24802 ft | 415 kts | 54° |
| 2026-04-26 04:21 | -37.20325 | 145.32849 | 25490 ft | 420 kts | 54° |
| 2026-04-26 04:21 | -37.18504 | 145.36041 | 26136 ft | 424 kts | 54° |
| 2026-04-26 04:21 | -37.16644 | 145.39298 | 26779 ft | 429 kts | 54° |
| 2026-04-26 04:22 | -37.14791 | 145.42534 | 27404 ft | 432 kts | 54° |
| 2026-04-26 04:22 | -37.12904 | 145.45828 | 28010 ft | 436 kts | 54° |
| 2026-04-26 04:22 | -37.11028 | 145.49101 | 28610 ft | 440 kts | 54° |
| 2026-04-26 04:22 | -37.09156 | 145.52362 | 29358 ft | 438 kts | 54° |
| 2026-04-26 04:23 | -37.07290 | 145.55609 | 30089 ft | 437 kts | 54° |
| 2026-04-26 04:23 | -37.05408 | 145.58881 | 30803 ft | 436 kts | 54° |
| 2026-04-26 04:23 | -37.03572 | 145.62070 | 31474 ft | 434 kts | 54° |
| 2026-04-26 04:23 | -37.01737 | 145.65253 | 32121 ft | 433 kts | 54° |
| 2026-04-26 04:24 | -36.99880 | 145.68472 | 32753 ft | 432 kts | 54° |
| 2026-04-26 04:24 | -36.98035 | 145.71668 | 33359 ft | 430 kts | 54° |
| 2026-04-26 04:24 | -36.96182 | 145.74873 | 33946 ft | 429 kts | 54° |
| 2026-04-26 04:24 | -36.94358 | 145.78027 | 34504 ft | 428 kts | 54° |
| 2026-04-26 04:25 | -36.92577 | 145.81102 | 34789 ft | 425 kts | 54° |
| 2026-04-26 04:25 | -36.90710 | 145.84325 | 34853 ft | 436 kts | 54° |
| 2026-04-26 04:25 | -36.88844 | 145.87541 | 34859 ft | 449 kts | 54° |
| 2026-04-26 04:25 | -36.86908 | 145.90875 | 34861 ft | 461 kts | 54° |
| 2026-04-26 04:26 | -36.84909 | 145.94315 | 34800 ft | 465 kts | 54° |
| 2026-04-26 04:26 | -36.80901 | 146.01198 | 34759 ft | 461 kts | 54° |
| 2026-04-26 04:27 | -36.76877 | 146.08096 | 34763 ft | 461 kts | 54° |
| 2026-04-26 04:27 | -36.72819 | 146.15039 | 34568 ft | 452 kts | 54° |
| 2026-04-26 04:28 | -36.68825 | 146.21858 | 34458 ft | 459 kts | 54° |
| 2026-04-26 04:28 | -36.66854 | 146.25218 | 34696 ft | 456 kts | 54° |
| 2026-04-26 04:28 | -36.64854 | 146.28624 | 35015 ft | 459 kts | 54° |
| 2026-04-26 04:29 | -36.60739 | 146.35620 | 34995 ft | 462 kts | 54° |
| 2026-04-26 04:29 | -36.56636 | 146.42583 | 35000 ft | 461 kts | 54° |
| 2026-04-26 04:30 | -36.52570 | 146.49469 | 35000 ft | 461 kts | 54° |
| 2026-04-26 04:30 | -36.48482 | 146.56377 | 35000 ft | 461 kts | 54° |
| 2026-04-26 04:31 | -36.44477 | 146.63133 | 35000 ft | 461 kts | 54° |
| 2026-04-26 04:31 | -36.40415 | 146.69969 | 35000 ft | 461 kts | 53° |
| 2026-04-26 04:32 | -36.36379 | 146.76752 | 35000 ft | 461 kts | 53° |
| 2026-04-26 04:32 | -36.32354 | 146.83498 | 35000 ft | 461 kts | 53° |
| 2026-04-26 04:33 | -36.28282 | 146.90312 | 35000 ft | 461 kts | 53° |
| 2026-04-26 04:33 | -36.24240 | 146.97063 | 35000 ft | 461 kts | 53° |
| 2026-04-26 04:34 | -36.20155 | 147.03870 | 35000 ft | 461 kts | 53° |
| 2026-04-26 04:34 | -36.16103 | 147.10609 | 35000 ft | 461 kts | 53° |
| 2026-04-26 04:35 | -36.11983 | 147.17448 | 35000 ft | 461 kts | 53° |
| 2026-04-26 04:35 | -36.07919 | 147.24181 | 35000 ft | 461 kts | 53° |
| 2026-04-26 04:36 | -36.03819 | 147.30959 | 35000 ft | 461 kts | 53° |
| 2026-04-26 04:36 | -35.99694 | 147.37764 | 35000 ft | 461 kts | 53° |
| 2026-04-26 04:37 | -35.95588 | 147.44527 | 35000 ft | 461 kts | 53° |
| 2026-04-26 04:37 | -35.93597 | 147.47801 | 34979 ft | 448 kts | 53° |
| 2026-04-26 04:37 | -35.91601 | 147.51080 | 34989 ft | 439 kts | 53° |
| 2026-04-26 04:38 | -35.87749 | 147.57399 | 35003 ft | 443 kts | 53° |
| 2026-04-26 04:38 | -35.83870 | 147.63751 | 34999 ft | 444 kts | 53° |
| 2026-04-26 04:39 | -35.79943 | 147.70171 | 34999 ft | 443 kts | 53° |
| 2026-04-26 04:39 | -35.76056 | 147.76511 | 35000 ft | 443 kts | 53° |
| 2026-04-26 04:40 | -35.72116 | 147.82927 | 35000 ft | 443 kts | 53° |
| 2026-04-26 04:40 | -35.68132 | 147.89403 | 35000 ft | 443 kts | 53° |
| 2026-04-26 04:41 | -35.64148 | 147.95866 | 35000 ft | 443 kts | 53° |
| 2026-04-26 04:41 | -35.60209 | 148.02246 | 35000 ft | 443 kts | 53° |
| 2026-04-26 04:42 | -35.56328 | 148.08519 | 35000 ft | 443 kts | 53° |
| 2026-04-26 04:42 | -35.52403 | 148.14853 | 35000 ft | 443 kts | 53° |
| 2026-04-26 04:43 | -35.48555 | 148.21050 | 35000 ft | 443 kts | 53° |
| 2026-04-26 04:43 | -35.44584 | 148.27434 | 35000 ft | 443 kts | 53° |
| 2026-04-26 04:44 | -35.40596 | 148.33833 | 35000 ft | 443 kts | 53° |
| 2026-04-26 04:44 | -35.36532 | 148.40343 | 35000 ft | 443 kts | 53° |
| 2026-04-26 04:45 | -35.32585 | 148.46652 | 35000 ft | 443 kts | 53° |
| 2026-04-26 04:45 | -35.28590 | 148.53027 | 35000 ft | 443 kts | 53° |
| 2026-04-26 04:46 | -35.24585 | 148.59409 | 35000 ft | 443 kts | 53° |
| 2026-04-26 04:46 | -35.20583 | 148.65770 | 35000 ft | 443 kts | 52° |
| 2026-04-26 04:47 | -35.16675 | 148.71971 | 35000 ft | 443 kts | 52° |
| 2026-04-26 04:47 | -35.12765 | 148.78166 | 34528 ft | 441 kts | 52° |
| 2026-04-26 04:47 | -35.10774 | 148.81317 | 33548 ft | 445 kts | 52° |
| 2026-04-26 04:48 | -35.06836 | 148.87540 | 31792 ft | 448 kts | 52° |
| 2026-04-26 04:48 | -35.04838 | 148.90692 | 30855 ft | 450 kts | 52° |
| 2026-04-26 04:48 | -35.02848 | 148.93829 | 30219 ft | 444 kts | 52° |
| 2026-04-26 04:49 | -35.00890 | 148.96915 | 29540 ft | 449 kts | 52° |
| 2026-04-26 04:49 | -34.98876 | 149.00082 | 29147 ft | 451 kts | 52° |
| 2026-04-26 04:49 | -34.96836 | 149.03290 | 28655 ft | 447 kts | 52° |
| 2026-04-26 04:49 | -34.94839 | 149.06429 | 28169 ft | 441 kts | 52° |
| 2026-04-26 04:50 | -34.92867 | 149.09525 | 27683 ft | 435 kts | 52° |
| 2026-04-26 04:50 | -34.90898 | 149.12611 | 27198 ft | 431 kts | 52° |
| 2026-04-26 04:50 | -34.88993 | 149.15596 | 26728 ft | 428 kts | 52° |
| 2026-04-26 04:50 | -34.87073 | 149.18602 | 26253 ft | 426 kts | 52° |
| 2026-04-26 04:51 | -34.85187 | 149.21552 | 25783 ft | 423 kts | 52° |
| 2026-04-26 04:51 | -34.83292 | 149.24513 | 25306 ft | 420 kts | 52° |
| 2026-04-26 04:51 | -34.81440 | 149.27405 | 24837 ft | 417 kts | 52° |
| 2026-04-26 04:51 | -34.79562 | 149.30336 | 24357 ft | 414 kts | 52° |
| 2026-04-26 04:52 | -34.77703 | 149.33234 | 23880 ft | 411 kts | 52° |
| 2026-04-26 04:52 | -34.75856 | 149.36112 | 23390 ft | 408 kts | 52° |
| 2026-04-26 04:52 | -34.74092 | 149.39024 | 22831 ft | 406 kts | 59° |
| 2026-04-26 04:52 | -34.72674 | 149.42111 | 22335 ft | 402 kts | 62° |
| 2026-04-26 04:53 | -34.71289 | 149.45248 | 21802 ft | 398 kts | 62° |
| 2026-04-26 04:53 | -34.69937 | 149.48338 | 21276 ft | 395 kts | 62° |
| 2026-04-26 04:53 | -34.68566 | 149.51477 | 20739 ft | 392 kts | 62° |
| 2026-04-26 04:53 | -34.67215 | 149.54570 | 20204 ft | 389 kts | 62° |
| 2026-04-26 04:54 | -34.65861 | 149.57669 | 19665 ft | 386 kts | 62° |
| 2026-04-26 04:54 | -34.64558 | 149.60649 | 19142 ft | 383 kts | 62° |
| 2026-04-26 04:54 | -34.63247 | 149.63644 | 18612 ft | 380 kts | 62° |
| 2026-04-26 04:54 | -34.61941 | 149.66625 | 18080 ft | 377 kts | 62° |
| 2026-04-26 04:55 | -34.60614 | 149.69652 | 17535 ft | 374 kts | 62° |
| 2026-04-26 04:55 | -34.59330 | 149.72577 | 17005 ft | 371 kts | 62° |
| 2026-04-26 04:55 | -34.58060 | 149.75468 | 16476 ft | 368 kts | 62° |
| 2026-04-26 04:55 | -34.56790 | 149.78358 | 15944 ft | 365 kts | 62° |
| 2026-04-26 04:56 | -34.55508 | 149.81270 | 15402 ft | 362 kts | 62° |
| 2026-04-26 04:56 | -34.54242 | 149.84146 | 14864 ft | 359 kts | 62° |
| 2026-04-26 04:56 | -34.52982 | 149.87006 | 14323 ft | 356 kts | 62° |
| 2026-04-26 04:56 | -34.51761 | 149.89774 | 13796 ft | 353 kts | 62° |
| 2026-04-26 04:57 | -34.50513 | 149.92603 | 13254 ft | 350 kts | 62° |
| 2026-04-26 04:57 | -34.49287 | 149.95375 | 12658 ft | 348 kts | 62° |
| 2026-04-26 04:57 | -34.48099 | 149.98062 | 12516 ft | 342 kts | 62° |
| 2026-04-26 04:57 | -34.46901 | 150.00769 | 12236 ft | 344 kts | 62° |
| 2026-04-26 04:58 | -34.45688 | 150.03507 | 11970 ft | 344 kts | 62° |
| 2026-04-26 04:58 | -34.44486 | 150.06220 | 11679 ft | 344 kts | 62° |
| 2026-04-26 04:58 | -34.43274 | 150.08952 | 11261 ft | 342 kts | 62° |
| 2026-04-26 04:58 | -34.42095 | 150.11606 | 10864 ft | 339 kts | 62° |
| 2026-04-26 04:59 | -34.40913 | 150.14269 | 10462 ft | 336 kts | 62° |
| 2026-04-26 04:59 | -34.39757 | 150.16867 | 9983 ft | 333 kts | 62° |
| 2026-04-26 04:59 | -34.38588 | 150.19493 | 9806 ft | 328 kts | 62° |
| 2026-04-26 04:59 | -34.37430 | 150.22095 | 9775 ft | 331 kts | 62° |
| 2026-04-26 05:00 | -34.36261 | 150.24716 | 9773 ft | 333 kts | 62° |
| 2026-04-26 05:00 | -34.35097 | 150.27328 | 9772 ft | 333 kts | 62° |
| 2026-04-26 05:00 | -34.33920 | 150.29964 | 9771 ft | 333 kts | 62° |
| 2026-04-26 05:00 | -34.32769 | 150.32541 | 9771 ft | 333 kts | 62° |
| 2026-04-26 05:01 | -34.31589 | 150.35181 | 9771 ft | 333 kts | 62° |
| 2026-04-26 05:01 | -34.30425 | 150.37782 | 9771 ft | 333 kts | 62° |
| 2026-04-26 05:01 | -34.29264 | 150.40376 | 9771 ft | 333 kts | 62° |
| 2026-04-26 05:01 | -34.28118 | 150.42935 | 9771 ft | 333 kts | 62° |
| 2026-04-26 05:02 | -34.26942 | 150.45567 | 9771 ft | 333 kts | 62° |
| 2026-04-26 05:02 | -34.25773 | 150.48184 | 9658 ft | 336 kts | 62° |
| 2026-04-26 05:02 | -34.24619 | 150.50764 | 9155 ft | 317 kts | 62° |
| 2026-04-26 05:02 | -34.23540 | 150.53174 | 8633 ft | 293 kts | 62° |
| 2026-04-26 05:03 | -34.22541 | 150.55406 | 8114 ft | 276 kts | 62° |
| 2026-04-26 05:03 | -34.21585 | 150.57538 | 7791 ft | 272 kts | 62° |
| 2026-04-26 05:03 | -34.20644 | 150.59639 | 7542 ft | 268 kts | 62° |
| 2026-04-26 05:03 | -34.19703 | 150.61734 | 7214 ft | 266 kts | 62° |
| 2026-04-26 05:04 | -34.18771 | 150.63811 | 6859 ft | 265 kts | 62° |
| 2026-04-26 05:04 | -34.17834 | 150.65895 | 6542 ft | 263 kts | 61° |
| 2026-04-26 05:04 | -34.16916 | 150.67937 | 6217 ft | 262 kts | 61° |
| 2026-04-26 05:04 | -34.16005 | 150.69961 | 5895 ft | 261 kts | 61° |
| 2026-04-26 05:05 | -34.15092 | 150.71991 | 5679 ft | 255 kts | 61° |
| 2026-04-26 05:05 | -34.14208 | 150.73953 | 5643 ft | 242 kts | 61° |
| 2026-04-26 05:05 | -34.13370 | 150.75813 | 5578 ft | 232 kts | 61° |
| 2026-04-26 05:05 | -34.12534 | 150.77667 | 5552 ft | 257 kts | 61° |
| 2026-04-26 05:06 | -34.11595 | 150.79747 | 6220 ft | 271 kts | 61° |
| 2026-04-26 05:06 | -34.10649 | 150.81844 | 6644 ft | 274 kts | 61° |
| 2026-04-26 05:06 | -34.09682 | 150.83992 | 6280 ft | 273 kts | 61° |
| 2026-04-26 05:06 | -34.08727 | 150.86114 | 5923 ft | 272 kts | 61° |
| 2026-04-26 05:07 | -34.07796 | 150.88182 | 5944 ft | 258 kts | 61° |
| 2026-04-26 05:07 | -34.06883 | 150.90208 | 5775 ft | 257 kts | 61° |
| 2026-04-26 05:07 | -34.05992 | 150.92186 | 5823 ft | 259 kts | 61° |
| 2026-04-26 05:07 | -34.05077 | 150.94215 | 5825 ft | 261 kts | 61° |
| 2026-04-26 05:08 | -34.04161 | 150.96246 | 5823 ft | 261 kts | 61° |
| 2026-04-26 05:08 | -34.03358 | 150.98285 | 5798 ft | 261 kts | 76° |
| 2026-04-26 05:08 | -34.03368 | 151.00487 | 5813 ft | 260 kts | 103° |
| 2026-04-26 05:08 | -34.04095 | 151.02548 | 5807 ft | 261 kts | 126° |
| 2026-04-26 05:09 | -34.05284 | 151.04248 | 5785 ft | 257 kts | 132° |
| 2026-04-26 05:09 | -34.06539 | 151.05867 | 5404 ft | 259 kts | 133° |
| 2026-04-26 05:09 | -34.07895 | 151.07329 | 5051 ft | 260 kts | 150° |
| 2026-04-26 05:09 | -34.09628 | 151.08093 | 4790 ft | 255 kts | 165° |
| 2026-04-26 05:10 | -34.11359 | 151.08589 | 4338 ft | 256 kts | 167° |
| 2026-04-26 05:10 | -34.13121 | 151.09053 | 3943 ft | 254 kts | 168° |
| 2026-04-26 05:10 | -34.14867 | 151.09508 | 3540 ft | 252 kts | 168° |
| 2026-04-26 05:10 | -34.16605 | 151.09958 | 3138 ft | 251 kts | 168° |
| 2026-04-26 05:11 | -34.18319 | 151.10402 | 2744 ft | 249 kts | 168° |
| 2026-04-26 05:11 | -34.19953 | 151.11067 | 2648 ft | 233 kts | 146° |
| 2026-04-26 05:11 | -34.20972 | 151.12523 | 2583 ft | 219 kts | 112° |
| 2026-04-26 05:11 | -34.21144 | 151.14293 | 2519 ft | 205 kts | 84° |
| 2026-04-26 05:12 | -34.20982 | 151.16013 | 2501 ft | 214 kts | 83° |
| 2026-04-26 05:12 | -34.20782 | 151.18060 | 2774 ft | 251 kts | 83° |
| 2026-04-26 05:12 | -34.20572 | 151.20195 | 3127 ft | 253 kts | 83° |
| 2026-04-26 05:12 | -34.20161 | 151.22319 | 3366 ft | 253 kts | 63° |
| 2026-04-26 05:13 | -34.19015 | 151.23940 | 3169 ft | 250 kts | 36° |
| 2026-04-26 05:13 | -34.17354 | 151.24666 | 2827 ft | 252 kts | 4° |
| 2026-04-26 05:13 | -34.15548 | 151.24203 | 2773 ft | 249 kts | 332° |
| 2026-04-26 05:13 | -34.13968 | 151.23112 | 2777 ft | 250 kts | 335° |
| 2026-04-26 05:14 | -34.12225 | 151.22336 | 2756 ft | 239 kts | 343° |
| 2026-04-26 05:14 | -34.10605 | 151.21806 | 2807 ft | 214 kts | 346° |
| 2026-04-26 05:14 | -34.09064 | 151.21343 | 2579 ft | 214 kts | 346° |
| 2026-04-26 05:14 | -34.07571 | 151.20961 | 2261 ft | 199 kts | 348° |
| 2026-04-26 05:15 | -34.06219 | 151.20605 | 1980 ft | 178 kts | 348° |
| 2026-04-26 05:15 | -34.05000 | 151.20290 | 1703 ft | 157 kts | 348° |
| 2026-04-26 05:15 | -34.03942 | 151.20015 | 1445 ft | 143 kts | 348° |
| 2026-04-26 05:15 | -34.02949 | 151.19756 | 1253 ft | 138 kts | 347° |
| 2026-04-26 05:16 | -34.01937 | 151.19492 | 1102 ft | 141 kts | 347° |
| 2026-04-26 05:16 | -34.00906 | 151.19223 | 932 ft | 146 kts | 347° |
| 2026-04-26 05:16 | -33.99876 | 151.18956 | 726 ft | 143 kts | 347° |
| 2026-04-26 05:16 | -33.98865 | 151.18687 | 506 ft | 142 kts | 347° |
| 2026-04-26 05:17 | -33.97854 | 151.18428 | 302 ft | 142 kts | 348° |
| 2026-04-26 05:17 | -33.96828 | 151.18167 | 121 ft | 139 kts | 348° |
| 2026-04-26 05:17 | -33.95846 | 151.17905 | 17 ft | 129 kts | 348° |
| 2026-04-26 05:17 | -33.95052 | 151.17706 | 21 ft | 82 kts | 347° |
| 2026-04-26 05:18 | -33.94718 | 151.17619 | 23 ft | 21 kts | 348° |
| 2026-04-26 05:18 | -33.94594 | 151.17596 | 23 ft | 17 kts | 9° |
| 2026-04-26 05:18 | -33.94529 | 151.17676 | 25 ft | 4 kts | 33° |
| 2026-04-26 05:18 | -33.94475 | 151.17700 | 24 ft | 11 kts | 17° |
| 2026-04-26 05:19 | -33.94467 | 151.17703 | 24 ft | 0 kts | 17° |
| 2026-04-26 05:19 | -33.94466 | 151.17703 | 24 ft | 1 kts | 17° |
| 2026-04-26 05:20 | -33.94438 | 151.17714 | 24 ft | 7 kts | 17° |
| 2026-04-26 05:20 | -33.94355 | 151.17735 | 22 ft | 15 kts | 0° |
| 2026-04-26 05:20 | -33.94209 | 151.17696 | 17 ft | 25 kts | 345° |
| 2026-04-26 05:20 | -33.94009 | 151.17638 | 9 ft | 30 kts | 348° |
| 2026-04-26 05:21 | -33.93780 | 151.17580 | 8 ft | 32 kts | 348° |
| 2026-04-26 05:21 | -33.93557 | 151.17522 | 8 ft | 29 kts | 348° |
| 2026-04-26 05:21 | -33.93359 | 151.17497 | 14 ft | 24 kts | 348° |
| 2026-04-26 05:21 | -33.93203 | 151.17456 | 18 ft | 19 kts | 348° |
| 2026-04-26 05:22 | -33.93071 | 151.17423 | 20 ft | 17 kts | 348° |
| 2026-04-26 05:22 | -33.92984 | 151.17448 | 21 ft | 11 kts | 88° |
| 2026-04-26 05:22 | -33.92997 | 151.17541 | 21 ft | 9 kts | 101° |
| 2026-04-26 05:22 | -33.93018 | 151.17613 | 21 ft | 7 kts | 151° |
| 2026-04-26 05:23 | -33.93061 | 151.17616 | 20 ft | 4 kts | 170° |